Time;durP1;ratioP1;P1;durP2;ratioP2;P2;SDS_P1;SDS_P2;PMS_P1;PMS_P2;Temp;Humidity;BMP_temperature;BMP_pressure;BME280_temperature;BME280_humidity;BME280_pressure;Samples;Min_cycle;Max_cycle;Signal;HPM_P1;HPM_P2
2022/03/04 00:01:28;;;;;;;33.85;15.20;;;;;;;-1.51;82.31;94366.13;5053702;28;20239;-76
2022/03/04 00:03:56;;;;;;;34.85;15.68;;;;;;;-1.55;81.82;94359.72;5053805;28;20204;-76
2022/03/04 00:06:23;;;;;;;36.60;17.15;;;;;;;-1.76;83.42;94354.56;5054106;28;20223;-76
2022/03/04 00:08:50;;;;;;;38.30;14.07;;;;;;;-1.61;83.74;94360.75;5054184;28;20203;-76
2022/03/04 00:11:17;;;;;;;31.45;14.75;;;;;;;-1.47;83.32;94366.38;5053524;28;20242;-77
2022/03/04 00:13:44;;;;;;;31.42;13.65;;;;;;;-1.54;83.65;94366.63;5043787;28;20589;-77
2022/03/04 00:16:11;;;;;;;31.58;13.43;;;;;;;-1.46;84.05;94352.84;5037328;28;20220;-77
2022/03/04 00:18:38;;;;;;;28.52;13.50;;;;;;;-1.39;83.13;94362.44;5053524;28;20208;-77
2022/03/04 00:21:08;;;;;;;34.80;12.63;;;;;;;-1.37;83.19;94365.66;5053680;28;20234;-77
2022/03/04 00:23:35;;;;;;;25.55;11.63;;;;;;;-1.50;83.33;94354.41;5054014;28;20231;-76
2022/03/04 00:26:02;;;;;;;25.38;10.82;;;;;;;-1.40;84.67;94361.66;5053226;28;20281;-77
2022/03/04 00:28:29;;;;;;;31.58;14.65;;;;;;;-1.35;83.33;94358.19;5053603;28;20215;-77
2022/03/04 00:30:56;;;;;;;18.83;7.65;;;;;;;-1.25;81.62;94359.06;5053181;28;20570;-77
2022/03/04 00:33:23;;;;;;;22.48;11.25;;;;;;;-1.14;80.06;94357.22;5053126;28;20208;-77
2022/03/04 00:35:49;;;;;;;19.67;10.50;;;;;;;-1.21;81.34;94359.31;5053077;28;20204;-78
2022/03/04 00:38:18;;;;;;;25.95;10.60;;;;;;;-1.31;81.33;94360.06;5053481;28;20207;-77
2022/03/04 00:40:44;;;;;;;21.02;10.68;;;;;;;-1.44;81.17;94350.72;5053183;28;20224;-78
2022/03/04 00:43:11;;;;;;;18.00;8.90;;;;;;;-1.45;80.83;94354.44;5052532;28;20212;-78
2022/03/04 00:45:38;;;;;;;19.45;9.15;;;;;;;-1.59;81.92;94348.00;5053508;28;20204;-75
2022/03/04 00:48:05;;;;;;;18.75;9.93;;;;;;;-1.57;81.92;94351.22;5053143;28;20214;-78
2022/03/04 00:50:32;;;;;;;26.85;10.40;;;;;;;-1.59;82.08;94348.00;5052994;28;20238;-76
2022/03/04 00:53:01;;;;;;;19.10;9.30;;;;;;;-1.56;82.49;94347.50;5053396;28;20314;-76
2022/03/04 00:55:29;;;;;;;19.55;10.27;;;;;;;-1.48;82.25;94349.66;5040345;28;20212;-77
2022/03/04 00:57:56;;;;;;;24.45;9.10;;;;;;;-1.39;82.18;94341.19;5052684;28;20224;-78
2022/03/04 01:00:24;;;;;;;22.92;9.15;;;;;;;-1.34;82.13;94338.53;5052532;28;20665;-77
2022/03/04 01:02:51;;;;;;;21.80;9.80;;;;;;;-1.29;82.17;94333.25;5052849;28;20203;-77
2022/03/04 01:05:18;;;;;;;19.70;8.43;;;;;;;-1.29;81.68;94331.41;5052412;28;20212;-78
2022/03/04 01:07:45;;;;;;;20.60;10.60;;;;;;;-1.41;81.43;94328.16;5052813;28;20208;-78
2022/03/04 01:10:12;;;;;;;21.58;9.65;;;;;;;-1.42;80.93;94331.09;5052776;28;20203;-79
2022/03/04 01:12:40;;;;;;;22.55;10.38;;;;;;;-1.53;80.80;94336.38;5038083;28;20240;-76
2022/03/04 01:15:08;;;;;;;24.55;10.43;;;;;;;-1.36;83.04;94336.16;5032631;28;20224;-77
2022/03/04 01:17:35;;;;;;;28.40;14.25;;;;;;;-1.36;82.08;94330.81;5032765;28;20208;-76
2022/03/04 01:20:02;;;;;;;21.27;10.07;;;;;;;-1.44;81.94;94329.50;5034410;28;20234;-77
2022/03/04 01:22:29;;;;;;;24.45;12.05;;;;;;;-1.40;81.80;94328.97;5037406;28;20291;-78
2022/03/04 01:24:57;;;;;;;24.05;10.48;;;;;;;-1.34;81.87;94322.59;5052689;28;20666;-77
2022/03/04 01:27:24;;;;;;;26.77;10.75;;;;;;;-1.29;82.96;94326.09;5052629;28;20570;-78
2022/03/04 01:29:52;;;;;;;20.73;10.43;;;;;;;-1.23;81.91;94324.25;5052316;28;20219;-78
2022/03/04 01:32:19;;;;;;;24.45;9.63;;;;;;;-1.25;81.16;94318.41;5052411;28;20219;-76
2022/03/04 01:34:46;;;;;;;27.55;11.90;;;;;;;-1.20;80.01;94315.75;5052146;28;20246;-78
2022/03/04 01:37:13;;;;;;;33.47;10.85;;;;;;;-1.39;81.77;94325.25;5052512;28;20655;-77
2022/03/04 01:39:40;;;;;;;23.88;12.07;;;;;;;-1.30;82.39;94313.06;5052355;28;20215;-77
2022/03/04 01:42:07;;;;;;;24.27;10.02;;;;;;;-1.34;81.83;94315.44;5051282;28;20236;-78
2022/03/04 01:44:34;;;;;;;22.17;9.38;;;;;;;-1.24;81.55;94317.34;5051269;28;20211;-77
2022/03/04 01:47:03;;;;;;;24.40;10.73;;;;;;;-1.26;81.31;94314.16;5051699;28;20210;-78
2022/03/04 01:49:30;;;;;;;24.77;10.40;;;;;;;-1.39;81.45;94310.13;5052022;28;20211;-78
2022/03/04 01:51:57;;;;;;;32.70;13.02;;;;;;;-1.44;80.76;94310.09;5051409;28;20211;-77
2022/03/04 01:54:24;;;;;;;26.35;11.60;;;;;;;-1.59;80.29;94310.84;5051090;28;20200;-77
2022/03/04 01:56:51;;;;;;;22.85;10.50;;;;;;;-1.66;80.89;94302.31;5051120;28;20210;-76
2022/03/04 01:59:18;;;;;;;67.13;27.48;;;;;;;-1.64;80.99;94302.06;5051206;28;20500;-77
2022/03/04 02:01:45;;;;;;;44.70;19.98;;;;;;;-1.56;81.60;94296.25;5033271;28;20317;-77
2022/03/04 02:04:13;;;;;;;29.40;13.65;;;;;;;-1.51;82.27;94302.38;5032035;28;20207;-77
2022/03/04 02:06:40;;;;;;;30.92;13.02;;;;;;;-1.35;82.52;94297.09;5031415;28;20217;-76
2022/03/04 02:09:07;;;;;;;21.40;10.88;;;;;;;-1.34;81.67;94296.03;5031635;28;20660;-76
2022/03/04 02:11:34;;;;;;;21.85;9.60;;;;;;;-1.51;81.50;94296.28;5031455;28;20201;-76
2022/03/04 02:14:01;;;;;;;24.48;11.38;;;;;;;-1.51;83.00;94291.75;5031565;28;20215;-76
2022/03/04 02:16:34;;;;;;;17.45;9.38;;;;;;;-1.55;82.43;94300.50;5037433;28;20218;-77
2022/03/04 02:19:02;;;;;;;19.38;9.80;;;;;;;-1.37;82.31;94288.63;5037619;28;20196;-79
2022/03/04 02:21:32;;;;;;;23.73;9.40;;;;;;;-1.24;82.14;94288.13;5031180;28;20232;-78
2022/03/04 02:24:01;;;;;;;19.33;9.70;;;;;;;-1.41;81.62;94300.81;5047025;28;20211;-77
2022/03/04 02:26:28;;;;;;;18.83;9.98;;;;;;;-1.30;81.35;94297.13;5051076;28;20710;-78
2022/03/04 02:28:55;;;;;;;17.70;9.27;;;;;;;-1.38;80.12;94297.66;5051526;28;20204;-78
2022/03/04 02:31:23;;;;;;;27.00;11.55;;;;;;;-1.39;80.93;94293.38;5051365;28;20649;-77
2022/03/04 02:33:50;;;;;;;19.33;9.80;;;;;;;-1.36;80.42;94298.94;5051066;28;20208;-78
2022/03/04 02:36:17;;;;;;;26.45;9.57;;;;;;;-1.39;80.47;94296.03;5051129;28;20196;-78
2022/03/04 02:38:44;;;;;;;22.90;10.73;;;;;;;-1.34;80.81;94291.53;5034903;28;20201;-78
2022/03/04 02:41:13;;;;;;;22.50;10.98;;;;;;;-1.46;80.82;94288.31;5031366;28;20263;-78
2022/03/04 02:43:40;;;;;;;19.00;10.18;;;;;;;-1.62;82.06;94295.41;5047974;28;20223;-78
2022/03/04 02:46:07;;;;;;;25.70;11.55;;;;;;;-1.85;81.70;94290.56;5051022;28;20235;-77
2022/03/04 02:48:34;;;;;;;21.98;10.95;;;;;;;-1.84;81.44;94292.16;5050928;28;20610;-78
2022/03/04 02:51:01;;;;;;;23.13;10.63;;;;;;;-1.93;83.91;94281.25;5051142;28;20218;-78
2022/03/04 02:53:28;;;;;;;19.05;9.90;;;;;;;-1.79;84.01;94284.22;5051494;28;20211;-77
2022/03/04 02:55:54;;;;;;;21.38;10.70;;;;;;;-1.66;84.23;94286.41;5051223;28;20227;-78
2022/03/04 02:58:23;;;;;;;23.95;11.25;;;;;;;-1.58;83.72;94285.88;5050560;28;20800;-78
2022/03/04 03:00:50;;;;;;;25.50;12.07;;;;;;;-1.53;82.69;94282.47;5051024;28;20207;-78
2022/03/04 03:03:17;;;;;;;26.20;10.98;;;;;;;-1.60;82.20;94277.38;5050210;28;20226;-77
2022/03/04 03:05:44;;;;;;;18.25;9.50;;;;;;;-1.53;82.20;94280.59;5050813;28;20208;-77
2022/03/04 03:08:11;;;;;;;24.48;9.63;;;;;;;-1.64;82.80;94286.91;5049958;28;20282;-77
2022/03/04 03:10:38;;;;;;;30.63;14.93;;;;;;;-1.74;83.01;94294.84;5050917;28;20238;-77
2022/03/04 03:13:05;;;;;;;20.08;10.70;;;;;;;-1.91;83.58;94289.72;5050719;28;20231;-78
2022/03/04 03:15:34;;;;;;;23.75;9.45;;;;;;;-1.98;84.34;94298.97;5050820;28;20265;-77
2022/03/04 03:18:01;;;;;;;20.25;10.18;;;;;;;-1.77;84.10;94286.59;5031214;28;20254;-76
2022/03/04 03:20:27;;;;;;;24.75;10.93;;;;;;;-1.81;82.89;94281.81;5030707;28;20489;-77
2022/03/04 03:22:54;;;;;;;22.98;11.07;;;;;;;-2.00;84.00;94288.63;5037327;28;20238;-78
2022/03/04 03:25:21;;;;;;;26.90;9.13;;;;;;;-1.94;83.88;94271.69;5050635;28;20314;-78
2022/03/04 03:27:48;;;;;;;25.23;11.32;;;;;;;-1.70;83.89;94287.16;5050352;28;20210;-78
2022/03/04 03:30:15;;;;;;;22.17;9.95;;;;;;;-1.81;83.79;94286.34;5050579;28;20314;-77
2022/03/04 03:32:43;;;;;;;22.95;11.50;;;;;;;-1.72;82.78;94290.06;5050325;28;20204;-77
2022/03/04 03:35:10;;;;;;;27.63;11.48;;;;;;;-1.71;83.03;94296.19;5050218;28;20226;-77
2022/03/04 03:37:39;;;;;;;17.30;9.13;;;;;;;-1.68;82.64;94296.47;5050773;28;20208;-77
2022/03/04 03:40:07;;;;;;;26.10;11.55;;;;;;;-1.66;82.20;94304.19;5049466;28;20655;-77
2022/03/04 03:42:34;;;;;;;25.63;12.07;;;;;;;-1.87;83.27;94303.28;5049676;28;20251;-77
2022/03/04 03:45:02;;;;;;;23.67;10.20;;;;;;;-1.82;83.05;94298.81;5049978;28;20211;-79
2022/03/04 03:47:28;;;;;;;19.90;9.50;;;;;;;-1.82;82.72;94295.34;5050145;28;20200;-78
2022/03/04 03:49:57;;;;;;;19.38;9.18;;;;;;;-1.72;82.68;94302.56;5049715;28;20204;-78
2022/03/04 03:52:24;;;;;;;17.50;9.27;;;;;;;-1.63;83.16;94299.13;5050068;28;20199;-78
2022/03/04 03:54:51;;;;;;;17.40;8.48;;;;;;;-1.54;82.81;94291.47;5049533;28;20214;-78
2022/03/04 03:57:18;;;;;;;24.58;10.98;;;;;;;-1.58;81.91;94293.84;5049652;28;20224;-78
2022/03/04 03:59:45;;;;;;;21.95;10.15;;;;;;;-1.76;82.79;94304.91;5050333;28;20659;-77
2022/03/04 04:02:12;;;;;;;27.95;11.25;;;;;;;-1.75;82.70;94303.84;5050245;28;20729;-79
2022/03/04 04:04:39;;;;;;;25.30;11.82;;;;;;;-1.79;82.44;94305.44;5050017;28;20227;-78
2022/03/04 04:07:09;;;;;;;31.42;12.00;;;;;;;-1.83;82.56;94304.38;5050365;28;20290;-78
2022/03/04 04:09:37;;;;;;;16.23;9.00;;;;;;;-1.89;83.42;94300.06;5050325;28;20554;-77
2022/03/04 04:12:04;;;;;;;24.20;9.63;;;;;;;-1.86;82.98;94302.22;5050027;28;20706;-78
2022/03/04 04:14:31;;;;;;;25.40;11.88;;;;;;;-1.84;83.46;94300.91;5050006;28;20231;-78
2022/03/04 04:16:59;;;;;;;30.35;11.70;;;;;;;-1.94;83.34;94302.72;5050147;28;20732;-78
2022/03/04 04:19:26;;;;;;;20.88;11.07;;;;;;;-2.01;83.86;94302.94;5051255;28;20227;-78
2022/03/04 04:21:53;;;;;;;30.23;12.35;;;;;;;-1.98;83.45;94306.94;5042493;28;20236;-78
2022/03/04 04:24:21;;;;;;;23.42;11.57;;;;;;;-1.98;83.39;94297.13;5047188;28;20232;-79
2022/03/04 04:26:49;;;;;;;22.85;10.63;;;;;;;-1.94;83.33;94302.72;5033756;28;20637;-78
2022/03/04 04:29:16;;;;;;;34.22;13.80;;;;;;;-2.04;83.37;94311.41;5033714;28;20209;-78
2022/03/04 04:31:43;;;;;;;20.23;9.98;;;;;;;-1.99;83.18;94306.13;5033030;28;20674;-78
2022/03/04 04:34:10;;;;;;;27.05;11.77;;;;;;;-2.02;82.32;94309.31;5032982;28;20208;-78
2022/03/04 04:36:37;;;;;;;25.33;11.68;;;;;;;-2.07;83.17;94319.09;5032285;28;20629;-77
2022/03/04 04:39:04;;;;;;;23.13;12.18;;;;;;;-2.20;83.27;94321.16;5039113;28;20571;-78
2022/03/04 04:41:34;;;;;;;34.00;15.80;;;;;;;-2.17;83.49;94320.63;5052586;28;20281;-79
2022/03/04 04:44:01;;;;;;;34.00;13.15;;;;;;;-2.22;82.88;94327.75;5047419;28;20218;-77
2022/03/04 04:46:28;;;;;;;28.70;13.20;;;;;;;-2.16;82.93;94324.88;5033032;28;20231;-77
2022/03/04 04:48:55;;;;;;;29.15;13.45;;;;;;;-2.10;83.25;94319.59;5034069;28;20668;-77
2022/03/04 04:51:22;;;;;;;25.60;12.65;;;;;;;-2.12;83.08;94327.03;5034716;28;20295;-79
2022/03/04 04:53:50;;;;;;;28.55;12.95;;;;;;;-2.10;83.41;94324.91;5033575;28;20216;-78
2022/03/04 04:56:17;;;;;;;30.17;13.50;;;;;;;-2.08;83.27;94325.47;5032999;28;20208;-79
2022/03/04 04:58:45;;;;;;;33.38;13.48;;;;;;;-2.10;83.42;94338.19;5039524;28;20690;-78
2022/03/04 05:01:12;;;;;;;30.25;13.70;;;;;;;-2.06;83.19;94336.63;5052728;28;20211;-77
2022/03/04 05:03:39;;;;;;;23.58;12.70;;;;;;;-2.01;83.16;94331.31;5053420;28;20239;-78
2022/03/04 05:06:06;;;;;;;36.22;12.70;;;;;;;-1.92;83.04;94337.78;5052262;28;20208;-78
2022/03/04 05:08:33;;;;;;;32.22;11.13;;;;;;;-1.86;82.92;94342.03;5053265;28;20529;-77
2022/03/04 05:11:00;;;;;;;21.92;12.98;;;;;;;-1.74;82.83;94339.97;5038540;28;20215;-76
2022/03/04 05:13:28;;;;;;;33.53;12.80;;;;;;;-1.67;82.98;94334.44;5032800;28;20315;-78
2022/03/04 05:15:56;;;;;;;36.03;14.73;;;;;;;-1.71;82.38;94333.34;5032452;28;20235;-79
2022/03/04 05:18:23;;;;;;;33.83;13.65;;;;;;;-1.65;82.28;94338.44;5032773;28;20612;-79
2022/03/04 05:20:50;;;;;;;23.25;13.10;;;;;;;-1.59;82.80;94332.06;5031908;28;20227;-77
2022/03/04 05:23:58;;;;;;;30.23;13.25;;;;;;;-1.58;81.93;94333.69;5042889;28;20277;-77
2022/03/04 05:26:04;;;;;;;30.55;13.50;;;;;;;-1.35;81.65;94328.97;5051974;28;20231;-77
2022/03/04 05:28:31;;;;;;;26.75;13.10;;;;;;;-1.42;81.11;94331.09;5052997;28;20215;-78
2022/03/04 05:30:59;;;;;;;36.30;13.70;;;;;;;-1.26;80.57;94332.75;5051946;28;20224;-78
2022/03/04 05:33:26;;;;;;;38.28;13.65;;;;;;;-1.11;80.84;94328.28;5052551;28;20207;-78
2022/03/04 05:35:53;;;;;;;26.50;13.35;;;;;;;-1.14;81.02;94325.34;5052256;28;20204;-79
2022/03/04 05:38:20;;;;;;;37.00;14.70;;;;;;;-1.18;81.08;94332.22;5051988;28;20567;-78
2022/03/04 05:40:47;;;;;;;33.22;15.77;;;;;;;-1.18;80.11;94335.69;5051991;28;20200;-78
2022/03/04 05:43:14;;;;;;;32.00;14.45;;;;;;;-1.23;80.61;94337.53;5051619;28;20239;-78
2022/03/04 05:45:40;;;;;;;32.60;15.77;;;;;;;-1.09;80.55;94341.28;5052160;28;20639;-79
2022/03/04 05:48:09;;;;;;;35.38;15.48;;;;;;;-1.18;81.22;94335.69;5051978;28;20207;-78
2022/03/04 05:50:36;;;;;;;44.35;19.98;;;;;;;-1.28;80.70;94335.66;5032322;28;20563;-79
2022/03/04 05:53:03;;;;;;;36.47;16.38;;;;;;;-1.20;81.28;94337.00;5045539;28;20215;-79
2022/03/04 05:55:30;;;;;;;27.80;15.88;;;;;;;-1.07;80.41;94339.94;5051854;28;20199;-78
2022/03/04 05:57:57;;;;;;;26.02;12.57;;;;;;;-1.19;80.27;94341.25;5052193;28;20227;-77
2022/03/04 06:00:25;;;;;;;37.47;15.07;;;;;;;-1.31;81.51;94338.81;5051917;28;20207;-78
2022/03/04 06:02:52;;;;;;;29.20;15.48;;;;;;;-0.96;80.76;94345.31;5052150;28;20270;-78
2022/03/04 06:05:22;;;;;;;37.00;17.15;;;;;;;-0.48;80.30;94336.06;5051818;28;20204;-77
2022/03/04 06:07:49;;;;;;;31.52;15.88;;;;;;;0.11;78.86;94332.81;5052219;28;20596;-79
2022/03/04 06:10:15;;;;;;;34.15;15.20;;;;;;;0.26;78.05;94338.13;5051581;28;20212;-79
2022/03/04 06:12:42;;;;;;;35.13;17.10;;;;;;;0.46;76.65;94332.72;5051679;28;20239;-78
2022/03/04 06:15:10;;;;;;;32.25;15.05;;;;;;;0.67;74.66;94328.91;5050788;28;20231;-78
2022/03/04 06:17:37;;;;;;;41.40;16.38;;;;;;;0.99;74.95;94327.69;5051513;28;20211;-78
2022/03/04 06:20:04;;;;;;;36.90;18.25;;;;;;;1.34;74.77;94330.16;5051589;28;20301;-78
2022/03/04 06:22:34;;;;;;;37.47;18.48;;;;;;;2.43;72.06;94324.41;5051846;28;20235;-79
2022/03/04 06:25:01;;;;;;;37.72;15.80;;;;;;;2.69;69.01;94323.03;5051193;28;20230;-77
2022/03/04 06:27:27;;;;;;;43.28;19.33;;;;;;;2.43;68.02;94319.06;5050975;28;20583;-78
2022/03/04 06:29:54;;;;;;;34.60;16.40;;;;;;;2.46;68.80;94318.50;5051519;28;20208;-77
2022/03/04 06:32:21;;;;;;;42.63;18.27;;;;;;;2.53;69.76;94323.47;5047848;28;20567;-77
2022/03/04 06:34:48;;;;;;;33.22;16.98;;;;;;;2.07;69.62;94321.28;5030962;28;20219;-77
2022/03/04 06:37:15;;;;;;;31.98;14.32;;;;;;;2.46;68.74;94319.25;5030744;28;20627;-77
2022/03/04 06:39:43;;;;;;;34.97;16.13;;;;;;;2.17;68.23;94320.41;5030775;28;20220;-77
2022/03/04 06:42:10;;;;;;;34.38;16.80;;;;;;;1.89;70.28;94320.13;5034236;28;20246;-77
2022/03/04 06:44:37;;;;;;;36.28;16.83;;;;;;;1.71;70.29;94323.47;5051076;28;20227;-76
2022/03/04 06:47:04;;;;;;;36.38;16.95;;;;;;;1.27;71.85;94345.66;5050461;28;20226;-76
2022/03/04 06:49:31;;;;;;;29.55;12.88;;;;;;;0.60;73.15;94347.06;5050969;28;20207;-76
2022/03/04 06:51:58;;;;;;;30.30;15.32;;;;;;;0.55;72.64;94340.94;5050968;28;20204;-75
2022/03/04 06:54:25;;;;;;;19.00;10.70;;;;;;;0.69;73.23;94345.41;5050480;28;20216;-77
2022/03/04 06:56:53;;;;;;;28.67;13.35;;;;;;;0.43;74.52;94346.56;5050620;28;20393;-76
2022/03/04 06:59:20;;;;;;;31.92;16.45;;;;;;;0.65;75.00;94357.69;5050614;28;20208;-77
2022/03/04 07:01:47;;;;;;;39.80;17.50;;;;;;;1.06;72.57;94354.84;5050731;28;20207;-77
2022/03/04 07:04:14;;;;;;;38.17;18.10;;;;;;;0.96;74.06;94350.34;5050722;28;20234;-77
2022/03/04 07:06:41;;;;;;;40.35;19.30;;;;;;;1.32;72.05;94358.97;5050862;28;20215;-77
2022/03/04 07:09:08;;;;;;;39.30;17.70;;;;;;;1.38;71.16;94359.72;5050795;28;20207;-78
2022/03/04 07:11:35;;;;;;;43.60;20.42;;;;;;;1.59;71.32;94363.88;5049878;28;20698;-78
2022/03/04 07:14:03;;;;;;;42.90;17.15;;;;;;;1.72;71.15;94354.44;5050524;28;20215;-77
2022/03/04 07:16:30;;;;;;;49.60;20.83;;;;;;;1.89;70.53;94357.50;5031047;28;20247;-78
2022/03/04 07:18:57;;;;;;;44.78;18.83;;;;;;;1.84;71.09;94360.19;5030817;28;20578;-78
2022/03/04 07:21:24;;;;;;;38.60;17.77;;;;;;;2.22;69.84;94357.72;5030707;28;20473;-78
2022/03/04 07:23:51;;;;;;;43.88;21.00;;;;;;;2.52;69.03;94354.75;5044414;28;20234;-76
2022/03/04 07:26:18;;;;;;;49.75;20.88;;;;;;;2.69;69.34;94348.97;5050303;28;20238;-76
2022/03/04 07:28:45;;;;;;;42.10;20.27;;;;;;;2.60;68.25;94362.16;5049612;28;20206;-77
2022/03/04 07:31:14;;;;;;;41.10;18.75;;;;;;;3.08;68.16;94362.13;5049068;28;20504;-77
2022/03/04 07:33:41;;;;;;;35.33;20.05;;;;;;;3.37;66.25;94349.44;5050413;28;20208;-78
2022/03/04 07:36:08;;;;;;;28.30;15.63;;;;;;;3.65;65.05;94354.94;5043453;28;20215;-78
2022/03/04 07:38:35;;;;;;;53.58;21.60;;;;;;;3.68;64.27;94359.72;5029588;28;20212;-77
2022/03/04 07:41:01;;;;;;;56.22;22.67;;;;;;;4.03;64.92;94358.34;5030130;28;20196;-78
2022/03/04 07:43:28;;;;;;;42.92;19.38;;;;;;;4.39;63.41;94353.16;5045181;28;20619;-77
2022/03/04 07:45:55;;;;;;;55.95;21.77;;;;;;;4.80;61.79;94343.28;5041792;28;20685;-78
2022/03/04 07:48:24;;;;;;;42.65;20.58;;;;;;;4.97;61.87;94345.38;5030230;28;20208;-78
2022/03/04 07:50:51;;;;;;;37.00;19.25;;;;;;;4.97;59.44;94364.97;5030209;28;20215;-77
2022/03/04 07:53:18;;;;;;;52.35;22.67;;;;;;;4.68;61.82;94356.41;5032098;28;20212;-78
2022/03/04 07:55:45;;;;;;;51.17;23.33;;;;;;;4.26;61.33;94339.44;5033890;28;20212;-78
2022/03/04 07:58:12;;;;;;;45.00;21.70;;;;;;;4.36;61.52;94356.47;5050028;28;20246;-78
2022/03/04 08:00:38;;;;;;;45.65;21.05;;;;;;;4.06;61.31;94355.88;5044600;28;20204;-77
2022/03/04 08:03:05;;;;;;;38.53;19.00;;;;;;;4.13;60.77;94350.94;5034131;28;20236;-78
2022/03/04 08:05:35;;;;;;;36.75;19.60;;;;;;;3.93;61.06;94349.41;5034298;28;20540;-77
2022/03/04 08:08:02;;;;;;;50.53;26.27;;;;;;;4.09;60.64;94336.56;5033686;28;20250;-76
2022/03/04 08:10:29;;;;;;;46.30;20.92;;;;;;;4.64;59.66;94342.00;5034248;28;20220;-76
2022/03/04 08:12:56;;;;;;;41.78;20.52;;;;;;;4.83;58.66;94337.31;5033754;28;20243;-77
2022/03/04 08:15:23;;;;;;;42.97;21.45;;;;;;;4.01;60.04;94352.50;5033714;28;20283;-77
2022/03/04 08:17:50;;;;;;;41.22;18.52;;;;;;;4.47;60.16;94349.81;5033635;28;20208;-78
2022/03/04 08:20:17;;;;;;;42.47;19.10;;;;;;;4.87;59.61;94343.69;5034069;28;20259;-77
2022/03/04 08:22:45;;;;;;;31.15;16.27;;;;;;;5.05;56.83;94343.88;5038988;28;20204;-76
2022/03/04 08:25:12;;;;;;;31.77;14.27;;;;;;;4.64;56.51;94345.47;5053286;28;20223;-77
2022/03/04 08:27:39;;;;;;;28.73;14.18;;;;;;;4.60;56.15;94349.03;5053361;28;20214;-77
2022/03/04 08:30:08;;;;;;;24.55;12.20;;;;;;;4.60;56.13;94343.69;5042393;28;20268;-77
2022/03/04 08:32:35;;;;;;;21.05;10.82;;;;;;;3.89;58.35;94351.06;5033336;28;20262;-77
2022/03/04 08:35:02;;;;;;;30.02;16.80;;;;;;;3.76;59.80;94361.72;5033849;28;20257;-76
2022/03/04 08:37:29;;;;;;;28.83;12.63;;;;;;;3.70;59.92;94373.59;5052389;28;20211;-78
2022/03/04 08:39:57;;;;;;;29.73;15.93;;;;;;;3.47;60.44;94365.34;5052879;28;20214;-75
2022/03/04 08:42:24;;;;;;;29.17;15.23;;;;;;;3.30;60.61;94372.28;5039610;28;20243;-75
2022/03/04 08:44:52;;;;;;;34.13;16.10;;;;;;;3.72;61.00;94368.75;5052916;28;20224;-76
2022/03/04 08:47:19;;;;;;;32.00;14.90;;;;;;;4.07;59.15;94370.88;5040263;28;20211;-74
2022/03/04 08:49:46;;;;;;;32.92;17.65;;;;;;;3.66;59.25;94375.28;5052485;28;20592;-76
2022/03/04 08:52:13;;;;;;;32.03;17.08;;;;;;;4.17;59.24;94367.22;5053057;28;20208;-75
2022/03/04 08:54:40;;;;;;;20.23;10.45;;;;;;;4.02;56.44;94370.94;5039297;28;20220;-75
2022/03/04 08:57:08;;;;;;;24.40;12.52;;;;;;;3.88;57.84;94367.44;5032275;28;20228;-77
2022/03/04 08:59:35;;;;;;;28.58;11.82;;;;;;;3.40;58.09;94375.63;5047291;28;20299;-77
2022/03/04 09:02:02;;;;;;;23.50;11.90;;;;;;;3.06;59.29;94375.00;5052471;28;20706;-76
2022/03/04 09:04:29;;;;;;;27.55;13.27;;;;;;;3.02;60.54;94368.63;5052190;28;20246;-76
2022/03/04 09:06:56;;;;;;;28.73;14.63;;;;;;;3.25;59.10;94362.44;5052728;28;20728;-75
2022/03/04 09:09:25;;;;;;;23.60;11.38;;;;;;;3.53;58.35;94363.41;5038037;28;20212;-76
2022/03/04 09:11:53;;;;;;;25.80;12.30;;;;;;;3.66;59.76;94359.22;5041112;28;20227;-76
2022/03/04 09:14:23;;;;;;;27.63;12.05;;;;;;;3.78;59.07;94370.28;5052308;28;20601;-76
2022/03/04 09:16:50;;;;;;;20.95;10.93;;;;;;;4.01;56.65;94358.63;5052555;28;20288;-76
2022/03/04 09:19:17;;;;;;;25.38;12.25;;;;;;;3.99;56.75;94360.81;5052307;28;20227;-76
2022/03/04 09:21:44;;;;;;;28.83;12.68;;;;;;;4.40;57.72;94354.75;5052399;28;20208;-76
2022/03/04 09:24:10;;;;;;;23.35;11.25;;;;;;;4.53;57.63;94354.78;5053024;28;20242;-76
2022/03/04 09:26:37;;;;;;;8.52;4.45;;;;;;;4.53;54.65;94354.00;5052454;28;20204;-75
2022/03/04 09:29:04;;;;;;;25.65;11.45;;;;;;;4.17;54.92;94359.97;5049189;28;20205;-76
2022/03/04 09:31:33;;;;;;;25.80;10.55;;;;;;;4.15;55.49;94359.47;5041866;28;20608;-76
2022/03/04 09:33:59;;;;;;;21.98;11.25;;;;;;;4.47;54.99;94355.19;5052603;28;20571;-78
2022/03/04 09:36:30;;;;;;;20.13;8.43;;;;;;;4.61;54.80;94362.16;5041891;28;20219;-76
2022/03/04 09:38:57;;;;;;;23.08;11.75;;;;;;;5.24;55.24;94357.97;5032268;28;20201;-76
2022/03/04 09:41:25;;;;;;;24.48;11.75;;;;;;;5.17;53.37;94352.22;5031257;28;20239;-78
2022/03/04 09:43:54;;;;;;;23.25;8.85;;;;;;;5.41;51.79;94352.78;5050166;28;20223;-75
2022/03/04 09:46:22;;;;;;;23.48;8.77;;;;;;;5.14;51.77;94352.81;5051214;28;20216;-76
2022/03/04 09:48:50;;;;;;;19.95;11.50;;;;;;;4.99;51.91;94352.03;5051731;28;20218;-75
2022/03/04 09:51:18;;;;;;;9.65;5.82;;;;;;;4.38;53.37;94363.09;5038575;28;20548;-75
2022/03/04 09:53:45;;;;;;;25.02;12.88;;;;;;;4.55;53.62;94357.19;5031127;28;20478;-77
2022/03/04 09:56:13;;;;;;;31.65;14.05;;;;;;;4.68;53.13;94356.41;5031242;28;20625;-77
2022/03/04 09:58:39;;;;;;;23.15;11.13;;;;;;;4.98;52.34;94347.75;5031001;28;20235;-77
2022/03/04 10:01:10;;;;;;;24.00;9.90;;;;;;;5.16;52.33;94350.63;5031658;28;20208;-77
2022/03/04 10:03:47;;;;;;;22.77;13.45;;;;;;;4.93;52.00;94347.06;5038031;28;20269;-77
2022/03/04 10:06:18;;;;;;;17.52;10.10;;;;;;;4.67;52.87;94341.38;5050643;28;20207;-77
2022/03/04 10:08:47;;;;;;;17.52;8.55;;;;;;;4.83;53.55;94353.41;5050425;28;20242;-76
2022/03/04 10:11:25;;;;;;;20.73;7.95;;;;;;;4.69;52.96;94341.88;5051267;28;20242;-76
2022/03/04 10:13:53;;;;;;;13.60;6.82;;;;;;;4.65;53.81;94340.88;5051883;28;20230;-76
2022/03/04 10:16:24;;;;;;;19.95;9.32;;;;;;;4.90;53.61;94336.94;5037063;28;20682;-76
2022/03/04 10:19:13;;;;;;;30.23;14.70;;;;;;;4.91;53.23;94338.53;5050524;28;20284;-74
2022/03/04 10:21:53;;;;;;;17.70;9.40;;;;;;;5.08;54.20;94321.78;5051246;28;20208;-75
2022/03/04 10:24:21;;;;;;;29.45;9.82;;;;;;;5.51;52.64;94314.94;5052862;28;20219;-75
2022/03/04 10:26:57;;;;;;;14.25;6.95;;;;;;;5.73;52.35;94319.56;5051398;28;20203;-77
2022/03/04 10:29:26;;;;;;;29.30;15.23;;;;;;;5.88;52.21;94319.22;5050737;28;20207;-75
2022/03/04 10:32:08;;;;;;;35.60;16.38;;;;;;;6.13;52.64;94314.34;5051225;28;20219;-76
2022/03/04 10:34:44;;;;;;;39.13;16.58;;;;;;;6.51;52.20;94317.38;5051099;28;20215;-75
2022/03/04 10:37:14;;;;;;;24.80;11.23;;;;;;;6.83;50.85;94306.28;5051353;28;20325;-76
2022/03/04 10:39:59;;;;;;;23.33;11.82;;;;;;;6.88;50.29;94302.66;5051262;28;20207;-76
2022/03/04 10:42:40;;;;;;;27.17;12.85;;;;;;;7.05;50.16;94297.31;5050787;28;20707;-77
2022/03/04 10:45:08;;;;;;;19.10;11.43;;;;;;;7.27;50.23;94299.09;5050946;28;20237;-76
2022/03/04 10:47:49;;;;;;;20.67;11.68;;;;;;;7.54;49.20;94292.63;5041943;28;20201;-77
2022/03/04 10:50:17;;;;;;;25.55;12.25;;;;;;;7.64;49.47;94287.75;5048574;28;20207;-77
2022/03/04 10:53:10;;;;;;;28.85;12.73;;;;;;;7.70;49.78;94280.28;5050592;28;20814;-76
2022/03/04 10:55:40;;;;;;;28.23;12.93;;;;;;;7.94;49.16;94277.88;5040041;28;20204;-75
2022/03/04 10:58:12;;;;;;;31.23;13.65;;;;;;;8.05;50.77;94270.25;5050645;28;20243;-77
2022/03/04 11:00:39;;;;;;;26.90;17.08;;;;;;;7.95;48.34;94267.88;5050618;28;20203;-75
2022/03/04 11:03:06;;;;;;;28.58;16.08;;;;;;;7.89;48.19;94271.88;5050157;28;20210;-76
2022/03/04 11:05:34;;;;;;;25.67;16.58;;;;;;;7.88;50.14;94267.59;5041828;28;20231;-76
2022/03/04 11:08:01;;;;;;;32.67;17.45;;;;;;;7.87;49.63;94266.78;5030821;28;20208;-75
2022/03/04 11:10:29;;;;;;;29.73;16.70;;;;;;;7.33;48.78;94270.91;5030742;28;20216;-77
2022/03/04 11:12:56;;;;;;;36.72;17.77;;;;;;;7.28;49.47;94262.97;5047088;28;20284;-76
2022/03/04 11:15:24;;;;;;;36.30;17.52;;;;;;;7.22;52.51;94259.66;5050681;28;20231;-77
2022/03/04 11:17:53;;;;;;;30.92;17.63;;;;;;;7.19;49.91;94259.47;5050418;28;20219;-77
2022/03/04 11:20:20;;;;;;;39.20;19.35;;;;;;;7.11;49.91;94248.38;5049931;28;20285;-78
2022/03/04 11:22:51;;;;;;;33.67;19.00;;;;;;;6.80;51.15;94250.38;5051376;28;20207;-76
2022/03/04 11:25:18;;;;;;;33.38;17.38;;;;;;;6.75;53.05;94250.53;5049777;28;20317;-77